KWRB Airport (Robins Afb) Information

FAA: WRB - ICAO: KWRB

KWRB Airport Location

State Georgia
County Houston
City Warner Robins
KWRB Airport is 10 miles southeast of Warner Robins, GA.
Latitude 32-38-24.6150N
Longitude 083-35-30.9150W
Elevation 294ft

KWRB Airport METARs

METAR KWRB 060556Z 16004KT 10SM FEW050 BKN150 25/24 A3000 RMK AO2A SLP158 T02450241 10314 20245 58011
Altimeter 30.00"
Temperature 24.5°C (76.1°F)
Wind 160° at 4KT
Clouds few at 5,000ft broken at 15,000ft
Visibility 10.0mi
Time observed: 2022-07-06T05:56:00Z

KWRB Airport Details

Status Operational
Activation September 1943
Ownership Military - Air Force
Usage Private
Chart ATLANTA
ATC on-site Yes
Beacon schedule sunset-sunrise
Beacon color clear green

KWRB Airport Contacts

Owner USAF
Owner address ROBINS AFB, WARNER ROBINS, GA 31093
Owner phone N/A
Manager KEITH CLAXTON
Manager address 48 CLAXTON SCOTT WAY, SWAINSBORO, GA 30401-6026
Manager phone (478) 494-7341

KWRB Airport (Robins Afb) Radio Frequencies

KWRB (Airport) Radio Frequencies

UNICOM N/A
Common traffic advisory frequency (CTAF) N/A